sensor_id;sensor_type;location;lat;lon;timestamp;P1;durP1;ratioP1;P2;durP2;ratioP2
30472;SDS011;17263;48.160;11.452;2023-02-03T00:01:32;5.70;;;2.23;;
30472;SDS011;17263;48.160;11.452;2023-02-03T00:03:58;4.73;;;2.30;;
30472;SDS011;17263;48.160;11.452;2023-02-03T00:06:24;6.10;;;2.30;;
30472;SDS011;17263;48.160;11.452;2023-02-03T00:08:57;5.40;;;2.00;;
30472;SDS011;17263;48.160;11.452;2023-02-03T00:11:24;4.20;;;1.97;;
30472;SDS011;17263;48.160;11.452;2023-02-03T00:13:50;3.60;;;2.40;;
30472;SDS011;17263;48.160;11.452;2023-02-03T00:16:16;5.03;;;2.63;;
30472;SDS011;17263;48.160;11.452;2023-02-03T00:18:42;3.07;;;1.90;;
30472;SDS011;17263;48.160;11.452;2023-02-03T00:21:08;3.83;;;2.00;;
30472;SDS011;17263;48.160;11.452;2023-02-03T00:23:34;3.40;;;2.07;;
30472;SDS011;17263;48.160;11.452;2023-02-03T00:26:11;4.63;;;1.80;;
30472;SDS011;17263;48.160;11.452;2023-02-03T00:28:39;4.97;;;1.93;;
30472;SDS011;17263;48.160;11.452;2023-02-03T00:31:12;3.20;;;1.83;;
30472;SDS011;17263;48.160;11.452;2023-02-03T00:33:43;3.97;;;2.13;;
30472;SDS011;17263;48.160;11.452;2023-02-03T00:36:09;3.47;;;1.90;;
30472;SDS011;17263;48.160;11.452;2023-02-03T00:38:36;2.97;;;1.83;;
30472;SDS011;17263;48.160;11.452;2023-02-03T00:41:02;3.33;;;2.17;;
30472;SDS011;17263;48.160;11.452;2023-02-03T00:43:28;6.63;;;1.80;;
30472;SDS011;17263;48.160;11.452;2023-02-03T00:45:55;4.17;;;2.10;;
30472;SDS011;17263;48.160;11.452;2023-02-03T00:48:21;4.03;;;2.10;;
30472;SDS011;17263;48.160;11.452;2023-02-03T00:50:47;4.57;;;2.10;;
30472;SDS011;17263;48.160;11.452;2023-02-03T00:53:13;5.17;;;1.97;;
30472;SDS011;17263;48.160;11.452;2023-02-03T00:55:41;3.23;;;1.77;;
30472;SDS011;17263;48.160;11.452;2023-02-03T00:58:07;3.17;;;1.80;;
30472;SDS011;17263;48.160;11.452;2023-02-03T01:00:33;3.27;;;1.80;;
30472;SDS011;17263;48.160;11.452;2023-02-03T01:02:59;5.07;;;2.00;;
30472;SDS011;17263;48.160;11.452;2023-02-03T01:05:25;2.80;;;2.13;;
30472;SDS011;17263;48.160;11.452;2023-02-03T01:07:51;2.00;;;1.70;;
30472;SDS011;17263;48.160;11.452;2023-02-03T01:10:17;5.57;;;1.90;;
30472;SDS011;17263;48.160;11.452;2023-02-03T01:12:43;3.33;;;1.60;;
30472;SDS011;17263;48.160;11.452;2023-02-03T01:15:09;4.07;;;1.80;;
30472;SDS011;17263;48.160;11.452;2023-02-03T01:17:36;3.63;;;1.90;;
30472;SDS011;17263;48.160;11.452;2023-02-03T01:20:02;4.93;;;1.90;;
30472;SDS011;17263;48.160;11.452;2023-02-03T01:22:29;6.27;;;2.03;;
30472;SDS011;17263;48.160;11.452;2023-02-03T01:24:55;3.40;;;1.97;;
30472;SDS011;17263;48.160;11.452;2023-02-03T01:27:21;4.50;;;1.70;;
30472;SDS011;17263;48.160;11.452;2023-02-03T01:29:48;3.47;;;1.60;;
30472;SDS011;17263;48.160;11.452;2023-02-03T01:32:14;3.57;;;2.00;;
30472;SDS011;17263;48.160;11.452;2023-02-03T01:34:40;3.10;;;1.70;;
30472;SDS011;17263;48.160;11.452;2023-02-03T01:37:06;2.50;;;1.73;;
30472;SDS011;17263;48.160;11.452;2023-02-03T01:39:32;4.90;;;1.67;;
30472;SDS011;17263;48.160;11.452;2023-02-03T01:41:58;2.67;;;1.70;;
30472;SDS011;17263;48.160;11.452;2023-02-03T01:47:03;3.43;;;1.70;;
30472;SDS011;17263;48.160;11.452;2023-02-03T01:49:58;2.90;;;1.70;;
30472;SDS011;17263;48.160;11.452;2023-02-03T01:52:28;4.63;;;2.33;;
30472;SDS011;17263;48.160;11.452;2023-02-03T01:54:55;5.57;;;2.23;;
30472;SDS011;17263;48.160;11.452;2023-02-03T01:57:26;4.00;;;1.97;;
30472;SDS011;17263;48.160;11.452;2023-02-03T01:59:58;2.17;;;1.83;;
30472;SDS011;17263;48.160;11.452;2023-02-03T02:02:25;3.23;;;1.43;;
30472;SDS011;17263;48.160;11.452;2023-02-03T02:07:24;4.70;;;1.93;;
30472;SDS011;17263;48.160;11.452;2023-02-03T02:09:50;3.47;;;1.93;;
30472;SDS011;17263;48.160;11.452;2023-02-03T02:12:16;5.10;;;1.90;;
30472;SDS011;17263;48.160;11.452;2023-02-03T02:14:42;4.87;;;1.90;;
30472;SDS011;17263;48.160;11.452;2023-02-03T02:17:17;5.67;;;1.60;;
30472;SDS011;17263;48.160;11.452;2023-02-03T02:25:45;3.30;;;1.67;;
30472;SDS011;17263;48.160;11.452;2023-02-03T02:28:35;3.50;;;1.70;;
30472;SDS011;17263;48.160;11.452;2023-02-03T02:31:18;3.17;;;1.77;;
30472;SDS011;17263;48.160;11.452;2023-02-03T02:34:21;2.03;;;1.43;;
30472;SDS011;17263;48.160;11.452;2023-02-03T02:37:13;3.13;;;1.60;;
30472;SDS011;17263;48.160;11.452;2023-02-03T02:39:57;4.80;;;1.73;;
30472;SDS011;17263;48.160;11.452;2023-02-03T02:42:35;3.13;;;1.57;;
30472;SDS011;17263;48.160;11.452;2023-02-03T02:45:19;3.33;;;1.70;;
30472;SDS011;17263;48.160;11.452;2023-02-03T02:47:52;3.40;;;1.73;;
30472;SDS011;17263;48.160;11.452;2023-02-03T02:50:40;4.93;;;1.60;;
30472;SDS011;17263;48.160;11.452;2023-02-03T02:53:09;4.07;;;1.50;;
30472;SDS011;17263;48.160;11.452;2023-02-03T02:55:38;5.00;;;1.77;;
30472;SDS011;17263;48.160;11.452;2023-02-03T02:58:07;3.77;;;1.40;;
30472;SDS011;17263;48.160;11.452;2023-02-03T03:00:36;5.40;;;1.73;;
30472;SDS011;17263;48.160;11.452;2023-02-03T03:03:26;2.47;;;1.50;;
30472;SDS011;17263;48.160;11.452;2023-02-03T03:05:55;2.53;;;1.70;;
30472;SDS011;17263;48.160;11.452;2023-02-03T03:08:36;3.17;;;1.70;;
30472;SDS011;17263;48.160;11.452;2023-02-03T03:11:12;5.00;;;2.00;;
30472;SDS011;17263;48.160;11.452;2023-02-03T03:13:57;4.63;;;1.60;;
30472;SDS011;17263;48.160;11.452;2023-02-03T03:16:28;6.03;;;1.63;;
30472;SDS011;17263;48.160;11.452;2023-02-03T03:19:17;2.80;;;1.60;;
30472;SDS011;17263;48.160;11.452;2023-02-03T03:21:46;2.23;;;1.70;;
30472;SDS011;17263;48.160;11.452;2023-02-03T03:24:17;4.17;;;1.90;;
30472;SDS011;17263;48.160;11.452;2023-02-03T03:27:02;2.73;;;1.50;;
30472;SDS011;17263;48.160;11.452;2023-02-03T03:29:32;2.30;;;1.63;;
30472;SDS011;17263;48.160;11.452;2023-02-03T03:32:03;4.23;;;1.50;;
30472;SDS011;17263;48.160;11.452;2023-02-03T03:34:30;4.37;;;1.47;;
30472;SDS011;17263;48.160;11.452;2023-02-03T03:36:58;3.83;;;1.53;;
30472;SDS011;17263;48.160;11.452;2023-02-03T03:39:46;4.40;;;1.60;;
30472;SDS011;17263;48.160;11.452;2023-02-03T03:42:25;1.27;;;1.13;;
30472;SDS011;17263;48.160;11.452;2023-02-03T03:44:56;5.37;;;1.90;;
30472;SDS011;17263;48.160;11.452;2023-02-03T03:47:38;3.20;;;1.60;;
30472;SDS011;17263;48.160;11.452;2023-02-03T03:50:22;3.70;;;1.47;;
30472;SDS011;17263;48.160;11.452;2023-02-03T03:52:53;2.03;;;1.53;;
30472;SDS011;17263;48.160;11.452;2023-02-03T03:55:21;2.60;;;1.70;;
30472;SDS011;17263;48.160;11.452;2023-02-03T03:57:53;3.13;;;1.47;;
30472;SDS011;17263;48.160;11.452;2023-02-03T04:00:20;2.60;;;1.23;;
30472;SDS011;17263;48.160;11.452;2023-02-03T04:02:51;2.60;;;1.70;;
30472;SDS011;17263;48.160;11.452;2023-02-03T04:05:21;2.83;;;1.33;;
30472;SDS011;17263;48.160;11.452;2023-02-03T04:07:47;6.03;;;1.80;;
30472;SDS011;17263;48.160;11.452;2023-02-03T04:10:17;2.93;;;1.60;;
30472;SDS011;17263;48.160;11.452;2023-02-03T04:12:55;2.93;;;1.50;;
30472;SDS011;17263;48.160;11.452;2023-02-03T04:15:21;3.23;;;1.60;;
30472;SDS011;17263;48.160;11.452;2023-02-03T04:17:47;3.27;;;1.30;;
30472;SDS011;17263;48.160;11.452;2023-02-03T04:20:14;2.87;;;1.40;;
30472;SDS011;17263;48.160;11.452;2023-02-03T04:22:40;2.03;;;1.50;;
30472;SDS011;17263;48.160;11.452;2023-02-03T04:25:07;2.70;;;1.40;;
30472;SDS011;17263;48.160;11.452;2023-02-03T04:27:33;2.50;;;1.33;;
30472;SDS011;17263;48.160;11.452;2023-02-03T04:30:00;2.33;;;1.40;;
30472;SDS011;17263;48.160;11.452;2023-02-03T04:32:26;2.47;;;1.43;;
30472;SDS011;17263;48.160;11.452;2023-02-03T04:34:52;3.13;;;1.50;;
30472;SDS011;17263;48.160;11.452;2023-02-03T04:37:18;3.73;;;1.80;;
30472;SDS011;17263;48.160;11.452;2023-02-03T04:39:45;1.70;;;1.30;;
30472;SDS011;17263;48.160;11.452;2023-02-03T04:42:11;1.80;;;1.20;;
30472;SDS011;17263;48.160;11.452;2023-02-03T04:44:37;3.13;;;1.70;;
30472;SDS011;17263;48.160;11.452;2023-02-03T04:47:03;2.53;;;1.43;;
30472;SDS011;17263;48.160;11.452;2023-02-03T04:49:29;4.20;;;1.57;;
30472;SDS011;17263;48.160;11.452;2023-02-03T04:51:55;2.07;;;1.37;;
30472;SDS011;17263;48.160;11.452;2023-02-03T04:54:21;3.30;;;1.60;;
30472;SDS011;17263;48.160;11.452;2023-02-03T04:56:47;4.33;;;1.27;;
30472;SDS011;17263;48.160;11.452;2023-02-03T04:59:13;3.07;;;1.50;;
30472;SDS011;17263;48.160;11.452;2023-02-03T05:01:39;2.83;;;1.40;;
30472;SDS011;17263;48.160;11.452;2023-02-03T05:04:05;2.97;;;1.30;;
30472;SDS011;17263;48.160;11.452;2023-02-03T05:06:32;4.57;;;1.60;;
30472;SDS011;17263;48.160;11.452;2023-02-03T05:08:58;3.80;;;1.80;;
30472;SDS011;17263;48.160;11.452;2023-02-03T05:11:24;6.00;;;1.60;;
30472;SDS011;17263;48.160;11.452;2023-02-03T05:13:51;4.60;;;1.53;;
30472;SDS011;17263;48.160;11.452;2023-02-03T05:16:17;2.83;;;1.57;;
30472;SDS011;17263;48.160;11.452;2023-02-03T05:18:43;3.10;;;1.60;;
30472;SDS011;17263;48.160;11.452;2023-02-03T05:21:09;3.73;;;1.63;;
30472;SDS011;17263;48.160;11.452;2023-02-03T05:23:35;2.47;;;1.50;;
30472;SDS011;17263;48.160;11.452;2023-02-03T05:26:01;3.03;;;1.40;;
30472;SDS011;17263;48.160;11.452;2023-02-03T05:28:28;3.33;;;1.50;;
30472;SDS011;17263;48.160;11.452;2023-02-03T05:30:56;2.87;;;1.37;;
30472;SDS011;17263;48.160;11.452;2023-02-03T05:33:23;2.97;;;1.60;;
30472;SDS011;17263;48.160;11.452;2023-02-03T05:35:49;3.40;;;1.80;;
30472;SDS011;17263;48.160;11.452;2023-02-03T05:38:15;2.60;;;1.43;;
30472;SDS011;17263;48.160;11.452;2023-02-03T05:40:41;2.83;;;1.80;;
30472;SDS011;17263;48.160;11.452;2023-02-03T05:43:26;3.70;;;1.57;;
30472;SDS011;17263;48.160;11.452;2023-02-03T05:45:53;3.83;;;1.70;;
30472;SDS011;17263;48.160;11.452;2023-02-03T05:48:19;4.83;;;2.10;;
30472;SDS011;17263;48.160;11.452;2023-02-03T05:50:45;2.97;;;1.40;;
30472;SDS011;17263;48.160;11.452;2023-02-03T05:53:11;3.37;;;1.80;;
30472;SDS011;17263;48.160;11.452;2023-02-03T05:55:37;5.10;;;2.00;;
30472;SDS011;17263;48.160;11.452;2023-02-03T05:58:03;5.97;;;1.83;;
30472;SDS011;17263;48.160;11.452;2023-02-03T06:00:29;3.23;;;1.60;;
30472;SDS011;17263;48.160;11.452;2023-02-03T06:02:59;5.23;;;1.80;;
30472;SDS011;17263;48.160;11.452;2023-02-03T06:05:27;4.73;;;2.13;;
30472;SDS011;17263;48.160;11.452;2023-02-03T06:07:53;3.53;;;1.60;;
30472;SDS011;17263;48.160;11.452;2023-02-03T06:10:20;3.00;;;1.53;;
30472;SDS011;17263;48.160;11.452;2023-02-03T06:12:46;2.70;;;1.50;;
30472;SDS011;17263;48.160;11.452;2023-02-03T06:15:13;2.17;;;1.53;;
30472;SDS011;17263;48.160;11.452;2023-02-03T06:17:42;2.90;;;1.50;;
30472;SDS011;17263;48.160;11.452;2023-02-03T06:20:14;2.97;;;1.60;;
30472;SDS011;17263;48.160;11.452;2023-02-03T06:22:41;3.47;;;1.70;;
30472;SDS011;17263;48.160;11.452;2023-02-03T06:25:07;2.53;;;1.50;;
30472;SDS011;17263;48.160;11.452;2023-02-03T06:27:33;3.43;;;1.60;;
30472;SDS011;17263;48.160;11.452;2023-02-03T06:29:59;2.00;;;1.00;;
30472;SDS011;17263;48.160;11.452;2023-02-03T06:32:25;2.43;;;1.40;;
30472;SDS011;17263;48.160;11.452;2023-02-03T06:34:51;2.60;;;1.40;;
30472;SDS011;17263;48.160;11.452;2023-02-03T06:37:17;2.10;;;1.50;;
30472;SDS011;17263;48.160;11.452;2023-02-03T06:39:43;2.73;;;1.40;;
30472;SDS011;17263;48.160;11.452;2023-02-03T06:42:09;3.40;;;1.80;;
30472;SDS011;17263;48.160;11.452;2023-02-03T06:44:35;2.23;;;1.20;;
30472;SDS011;17263;48.160;11.452;2023-02-03T06:47:01;4.20;;;1.50;;
30472;SDS011;17263;48.160;11.452;2023-02-03T06:49:28;5.83;;;1.50;;
30472;SDS011;17263;48.160;11.452;2023-02-03T06:51:54;3.70;;;1.70;;
30472;SDS011;17263;48.160;11.452;2023-02-03T06:54:20;3.67;;;1.60;;
30472;SDS011;17263;48.160;11.452;2023-02-03T06:56:46;3.20;;;1.80;;
30472;SDS011;17263;48.160;11.452;2023-02-03T06:59:12;4.43;;;1.70;;
30472;SDS011;17263;48.160;11.452;2023-02-03T07:01:38;4.50;;;2.00;;
30472;SDS011;17263;48.160;11.452;2023-02-03T07:04:05;2.40;;;1.70;;
30472;SDS011;17263;48.160;11.452;2023-02-03T07:06:31;4.53;;;1.57;;
30472;SDS011;17263;48.160;11.452;2023-02-03T07:08:58;2.43;;;1.47;;
30472;SDS011;17263;48.160;11.452;2023-02-03T07:11:26;3.87;;;1.87;;
30472;SDS011;17263;48.160;11.452;2023-02-03T07:13:52;3.17;;;1.90;;
30472;SDS011;17263;48.160;11.452;2023-02-03T07:16:19;1.83;;;1.40;;
30472;SDS011;17263;48.160;11.452;2023-02-03T07:18:45;4.07;;;1.60;;
30472;SDS011;17263;48.160;11.452;2023-02-03T07:21:12;3.70;;;1.30;;
30472;SDS011;17263;48.160;11.452;2023-02-03T07:23:38;2.93;;;1.30;;
30472;SDS011;17263;48.160;11.452;2023-02-03T07:26:05;3.80;;;1.43;;
30472;SDS011;17263;48.160;11.452;2023-02-03T07:28:34;1.67;;;1.57;;
30472;SDS011;17263;48.160;11.452;2023-02-03T07:31:00;3.10;;;1.50;;
30472;SDS011;17263;48.160;11.452;2023-02-03T07:33:29;1.87;;;1.03;;
30472;SDS011;17263;48.160;11.452;2023-02-03T07:35:56;4.87;;;1.60;;
30472;SDS011;17263;48.160;11.452;2023-02-03T07:38:24;3.80;;;1.47;;
30472;SDS011;17263;48.160;11.452;2023-02-03T07:40:51;2.83;;;1.47;;
30472;SDS011;17263;48.160;11.452;2023-02-03T07:43:18;1.47;;;1.23;;
30472;SDS011;17263;48.160;11.452;2023-02-03T07:45:44;3.30;;;1.50;;
30472;SDS011;17263;48.160;11.452;2023-02-03T07:48:10;4.33;;;1.20;;
30472;SDS011;17263;48.160;11.452;2023-02-03T07:50:37;3.00;;;1.40;;
30472;SDS011;17263;48.160;11.452;2023-02-03T07:53:04;3.30;;;1.47;;
30472;SDS011;17263;48.160;11.452;2023-02-03T07:55:31;3.20;;;1.33;;
30472;SDS011;17263;48.160;11.452;2023-02-03T07:57:57;2.53;;;1.20;;
30472;SDS011;17263;48.160;11.452;2023-02-03T08:00:23;1.43;;;0.80;;
30472;SDS011;17263;48.160;11.452;2023-02-03T08:02:50;3.73;;;1.40;;
30472;SDS011;17263;48.160;11.452;2023-02-03T08:05:17;2.23;;;1.20;;
30472;SDS011;17263;48.160;11.452;2023-02-03T08:07:43;1.90;;;1.27;;
30472;SDS011;17263;48.160;11.452;2023-02-03T08:10:10;3.80;;;1.43;;
30472;SDS011;17263;48.160;11.452;2023-02-03T08:12:38;1.60;;;1.20;;
30472;SDS011;17263;48.160;11.452;2023-02-03T08:15:05;1.37;;;1.10;;
30472;SDS011;17263;48.160;11.452;2023-02-03T08:17:31;1.87;;;1.23;;
30472;SDS011;17263;48.160;11.452;2023-02-03T08:19:58;3.17;;;1.40;;
30472;SDS011;17263;48.160;11.452;2023-02-03T08:22:24;2.00;;;1.23;;
30472;SDS011;17263;48.160;11.452;2023-02-03T08:24:50;1.40;;;1.07;;
30472;SDS011;17263;48.160;11.452;2023-02-03T08:27:17;1.33;;;1.23;;
30472;SDS011;17263;48.160;11.452;2023-02-03T08:29:45;3.07;;;1.30;;
30472;SDS011;17263;48.160;11.452;2023-02-03T08:32:16;2.13;;;1.30;;
30472;SDS011;17263;48.160;11.452;2023-02-03T08:34:49;2.17;;;1.23;;
30472;SDS011;17263;48.160;11.452;2023-02-03T08:37:17;4.60;;;1.60;;
30472;SDS011;17263;48.160;11.452;2023-02-03T08:39:45;1.20;;;1.10;;
30472;SDS011;17263;48.160;11.452;2023-02-03T08:42:11;4.17;;;1.17;;
30472;SDS011;17263;48.160;11.452;2023-02-03T08:44:37;2.60;;;1.47;;
30472;SDS011;17263;48.160;11.452;2023-02-03T08:47:03;2.93;;;1.30;;
30472;SDS011;17263;48.160;11.452;2023-02-03T08:49:30;1.17;;;1.00;;
30472;SDS011;17263;48.160;11.452;2023-02-03T08:51:57;5.27;;;1.40;;
30472;SDS011;17263;48.160;11.452;2023-02-03T08:54:23;3.23;;;1.30;;
30472;SDS011;17263;48.160;11.452;2023-02-03T08:56:50;4.13;;;1.50;;
30472;SDS011;17263;48.160;11.452;2023-02-03T08:59:16;2.70;;;1.10;;
30472;SDS011;17263;48.160;11.452;2023-02-03T09:01:43;4.40;;;1.40;;
30472;SDS011;17263;48.160;11.452;2023-02-03T09:04:10;2.20;;;1.40;;
30472;SDS011;17263;48.160;11.452;2023-02-03T09:06:37;2.17;;;1.20;;
30472;SDS011;17263;48.160;11.452;2023-02-03T09:09:04;1.63;;;1.20;;
30472;SDS011;17263;48.160;11.452;2023-02-03T09:11:30;4.20;;;1.13;;
30472;SDS011;17263;48.160;11.452;2023-02-03T09:13:56;2.40;;;1.20;;
30472;SDS011;17263;48.160;11.452;2023-02-03T09:16:23;3.27;;;1.00;;
30472;SDS011;17263;48.160;11.452;2023-02-03T09:18:49;2.00;;;1.07;;
30472;SDS011;17263;48.160;11.452;2023-02-03T09:21:16;2.00;;;1.30;;
30472;SDS011;17263;48.160;11.452;2023-02-03T09:23:43;1.63;;;1.20;;
30472;SDS011;17263;48.160;11.452;2023-02-03T09:26:10;3.83;;;1.50;;
30472;SDS011;17263;48.160;11.452;2023-02-03T09:28:38;1.30;;;0.97;;
30472;SDS011;17263;48.160;11.452;2023-02-03T09:31:06;2.20;;;1.17;;
30472;SDS011;17263;48.160;11.452;2023-02-03T09:33:33;2.70;;;1.10;;
30472;SDS011;17263;48.160;11.452;2023-02-03T09:36:00;2.43;;;1.10;;
30472;SDS011;17263;48.160;11.452;2023-02-03T09:38:27;1.00;;;0.80;;
30472;SDS011;17263;48.160;11.452;2023-02-03T09:40:54;2.07;;;1.00;;
30472;SDS011;17263;48.160;11.452;2023-02-03T09:43:40;7.67;;;1.30;;
30472;SDS011;17263;48.160;11.452;2023-02-03T09:51:38;2.33;;;1.00;;
30472;SDS011;17263;48.160;11.452;2023-02-03T09:56:36;1.90;;;1.10;;
30472;SDS011;17263;48.160;11.452;2023-02-03T09:59:04;3.07;;;1.40;;
30472;SDS011;17263;48.160;11.452;2023-02-03T10:01:37;4.43;;;1.57;;
30472;SDS011;17263;48.160;11.452;2023-02-03T10:04:17;3.77;;;1.80;;
30472;SDS011;17263;48.160;11.452;2023-02-03T10:06:48;3.73;;;1.17;;
30472;SDS011;17263;48.160;11.452;2023-02-03T10:12:09;2.93;;;1.30;;
30472;SDS011;17263;48.160;11.452;2023-02-03T10:18:00;1.40;;;1.07;;
30472;SDS011;17263;48.160;11.452;2023-02-03T10:20:35;2.73;;;1.20;;
30472;SDS011;17263;48.160;11.452;2023-02-03T10:23:19;1.83;;;1.20;;
30472;SDS011;17263;48.160;11.452;2023-02-03T10:25:51;2.97;;;1.27;;
30472;SDS011;17263;48.160;11.452;2023-02-03T10:28:21;3.47;;;1.13;;
30472;SDS011;17263;48.160;11.452;2023-02-03T10:30:58;2.10;;;1.10;;
30472;SDS011;17263;48.160;11.452;2023-02-03T10:33:30;4.33;;;0.90;;
30472;SDS011;17263;48.160;11.452;2023-02-03T10:36:13;3.57;;;1.37;;
30472;SDS011;17263;48.160;11.452;2023-02-03T10:41:29;5.07;;;1.27;;
30472;SDS011;17263;48.160;11.452;2023-02-03T10:43:56;3.80;;;1.10;;
30472;SDS011;17263;48.160;11.452;2023-02-03T10:46:27;2.50;;;1.20;;
30472;SDS011;17263;48.160;11.452;2023-02-03T10:48:58;2.33;;;1.30;;
30472;SDS011;17263;48.160;11.452;2023-02-03T10:53:51;1.60;;;1.00;;
30472;SDS011;17263;48.160;11.452;2023-02-03T10:56:24;2.50;;;1.10;;
30472;SDS011;17263;48.160;11.452;2023-02-03T10:58:55;2.67;;;1.40;;
30472;SDS011;17263;48.160;11.452;2023-02-03T11:01:24;2.10;;;1.30;;
30472;SDS011;17263;48.160;11.452;2023-02-03T11:04:25;3.17;;;1.27;;
30472;SDS011;17263;48.160;11.452;2023-02-03T11:06:54;2.53;;;1.30;;
30472;SDS011;17263;48.160;11.452;2023-02-03T11:09:27;1.73;;;1.20;;
30472;SDS011;17263;48.160;11.452;2023-02-03T11:12:04;1.53;;;1.30;;
30472;SDS011;17263;48.160;11.452;2023-02-03T11:14:38;1.10;;;1.03;;
30472;SDS011;17263;48.160;11.452;2023-02-03T11:17:08;1.20;;;1.10;;
30472;SDS011;17263;48.160;11.452;2023-02-03T11:19:41;1.93;;;1.30;;
30472;SDS011;17263;48.160;11.452;2023-02-03T11:22:10;2.13;;;1.20;;
30472;SDS011;17263;48.160;11.452;2023-02-03T11:24:37;5.07;;;1.57;;
30472;SDS011;17263;48.160;11.452;2023-02-03T11:27:12;4.10;;;1.30;;
30472;SDS011;17263;48.160;11.452;2023-02-03T11:30:25;3.50;;;1.50;;
30472;SDS011;17263;48.160;11.452;2023-02-03T11:32:41;2.30;;;1.20;;
30472;SDS011;17263;48.160;11.452;2023-02-03T11:35:21;4.20;;;1.27;;
30472;SDS011;17263;48.160;11.452;2023-02-03T11:37:50;2.73;;;1.00;;
30472;SDS011;17263;48.160;11.452;2023-02-03T11:45:36;4.03;;;1.40;;
30472;SDS011;17263;48.160;11.452;2023-02-03T11:59:04;7.80;;;1.40;;
30472;SDS011;17263;48.160;11.452;2023-02-03T12:09:57;1.87;;;0.90;;
30472;SDS011;17263;48.160;11.452;2023-02-03T12:25:59;0.90;;;0.90;;
30472;SDS011;17263;48.160;11.452;2023-02-03T12:31:36;2.20;;;1.57;;
30472;SDS011;17263;48.160;11.452;2023-02-03T12:34:22;1.57;;;1.20;;
30472;SDS011;17263;48.160;11.452;2023-02-03T12:37:09;1.23;;;1.00;;
30472;SDS011;17263;48.160;11.452;2023-02-03T12:39:42;6.80;;;1.30;;
30472;SDS011;17263;48.160;11.452;2023-02-03T12:43:00;2.70;;;1.20;;
30472;SDS011;17263;48.160;11.452;2023-02-03T12:55:43;3.20;;;1.17;;
30472;SDS011;17263;48.160;11.452;2023-02-03T12:58:18;2.10;;;1.10;;
30472;SDS011;17263;48.160;11.452;2023-02-03T13:00:50;1.60;;;1.17;;
30472;SDS011;17263;48.160;11.452;2023-02-03T13:03:36;2.60;;;0.93;;
30472;SDS011;17263;48.160;11.452;2023-02-03T13:06:15;4.17;;;1.20;;
30472;SDS011;17263;48.160;11.452;2023-02-03T13:08:57;1.87;;;1.40;;
30472;SDS011;17263;48.160;11.452;2023-02-03T13:11:39;3.77;;;1.40;;
30472;SDS011;17263;48.160;11.452;2023-02-03T13:14:19;2.20;;;1.30;;
30472;SDS011;17263;48.160;11.452;2023-02-03T13:16:57;1.70;;;1.40;;
30472;SDS011;17263;48.160;11.452;2023-02-03T13:19:39;5.47;;;1.37;;
30472;SDS011;17263;48.160;11.452;2023-02-03T13:22:10;6.67;;;1.50;;
30472;SDS011;17263;48.160;11.452;2023-02-03T13:24:38;2.00;;;1.13;;
30472;SDS011;17263;48.160;11.452;2023-02-03T13:32:58;2.37;;;1.10;;
30472;SDS011;17263;48.160;11.452;2023-02-03T13:38:40;2.33;;;1.20;;
30472;SDS011;17263;48.160;11.452;2023-02-03T13:41:25;2.60;;;1.10;;
30472;SDS011;17263;48.160;11.452;2023-02-03T13:44:02;1.70;;;1.27;;
30472;SDS011;17263;48.160;11.452;2023-02-03T13:46:30;1.90;;;1.60;;
30472;SDS011;17263;48.160;11.452;2023-02-03T13:48:59;2.20;;;1.40;;
30472;SDS011;17263;48.160;11.452;2023-02-03T13:51:31;3.07;;;1.30;;
30472;SDS011;17263;48.160;11.452;2023-02-03T13:54:07;3.53;;;1.10;;
30472;SDS011;17263;48.160;11.452;2023-02-03T13:56:39;1.70;;;1.00;;
30472;SDS011;17263;48.160;11.452;2023-02-03T14:01:39;2.10;;;1.10;;
30472;SDS011;17263;48.160;11.452;2023-02-03T14:04:06;1.60;;;0.77;;
30472;SDS011;17263;48.160;11.452;2023-02-03T14:06:54;1.10;;;0.90;;
30472;SDS011;17263;48.160;11.452;2023-02-03T14:20:03;2.20;;;1.03;;
30472;SDS011;17263;48.160;11.452;2023-02-03T14:23:38;10.20;;;1.10;;
30472;SDS011;17263;48.160;11.452;2023-02-03T14:25:47;1.03;;;0.97;;
30472;SDS011;17263;48.160;11.452;2023-02-03T14:28:18;1.50;;;1.00;;
30472;SDS011;17263;48.160;11.452;2023-02-03T14:36:55;1.10;;;0.90;;
30472;SDS011;17263;48.160;11.452;2023-02-03T14:39:21;3.50;;;1.00;;
30472;SDS011;17263;48.160;11.452;2023-02-03T14:42:03;1.00;;;0.80;;
30472;SDS011;17263;48.160;11.452;2023-02-03T14:55:34;4.17;;;1.23;;
30472;SDS011;17263;48.160;11.452;2023-02-03T14:58:15;6.33;;;1.30;;
30472;SDS011;17263;48.160;11.452;2023-02-03T15:00:58;3.27;;;1.13;;
30472;SDS011;17263;48.160;11.452;2023-02-03T15:03:25;1.87;;;1.20;;
30472;SDS011;17263;48.160;11.452;2023-02-03T15:05:55;2.17;;;1.10;;
30472;SDS011;17263;48.160;11.452;2023-02-03T15:08:43;9.67;;;1.50;;
30472;SDS011;17263;48.160;11.452;2023-02-03T15:13:46;1.30;;;1.00;;
30472;SDS011;17263;48.160;11.452;2023-02-03T15:16:13;3.70;;;1.20;;
30472;SDS011;17263;48.160;11.452;2023-02-03T15:18:43;4.03;;;1.07;;
30472;SDS011;17263;48.160;11.452;2023-02-03T15:21:13;2.00;;;0.90;;
30472;SDS011;17263;48.160;11.452;2023-02-03T15:23:42;1.20;;;0.90;;
30472;SDS011;17263;48.160;11.452;2023-02-03T15:26:19;2.00;;;1.30;;
30472;SDS011;17263;48.160;11.452;2023-02-03T15:29:01;1.87;;;0.97;;
30472;SDS011;17263;48.160;11.452;2023-02-03T15:31:30;1.70;;;1.10;;
30472;SDS011;17263;48.160;11.452;2023-02-03T15:34:44;1.47;;;1.10;;
30472;SDS011;17263;48.160;11.452;2023-02-03T15:36:55;2.17;;;1.10;;
30472;SDS011;17263;48.160;11.452;2023-02-03T15:41:56;3.93;;;1.17;;
30472;SDS011;17263;48.160;11.452;2023-02-03T15:44:26;2.07;;;1.10;;
30472;SDS011;17263;48.160;11.452;2023-02-03T15:47:01;2.83;;;1.67;;
30472;SDS011;17263;48.160;11.452;2023-02-03T15:49:31;0.90;;;0.90;;
30472;SDS011;17263;48.160;11.452;2023-02-03T15:52:06;5.37;;;1.20;;
30472;SDS011;17263;48.160;11.452;2023-02-03T15:54:40;1.80;;;1.20;;
30472;SDS011;17263;48.160;11.452;2023-02-03T15:57:17;2.67;;;1.20;;
30472;SDS011;17263;48.160;11.452;2023-02-03T15:59:56;2.37;;;1.30;;
30472;SDS011;17263;48.160;11.452;2023-02-03T16:02:29;1.57;;;1.07;;
30472;SDS011;17263;48.160;11.452;2023-02-03T16:05:04;4.50;;;1.30;;
30472;SDS011;17263;48.160;11.452;2023-02-03T16:07:39;1.97;;;1.07;;
30472;SDS011;17263;48.160;11.452;2023-02-03T16:10:05;1.73;;;1.17;;
30472;SDS011;17263;48.160;11.452;2023-02-03T16:12:48;2.37;;;1.20;;
30472;SDS011;17263;48.160;11.452;2023-02-03T16:15:22;2.50;;;1.10;;
30472;SDS011;17263;48.160;11.452;2023-02-03T16:17:54;1.73;;;1.07;;
30472;SDS011;17263;48.160;11.452;2023-02-03T16:20:25;2.37;;;1.30;;
30472;SDS011;17263;48.160;11.452;2023-02-03T16:23:16;3.63;;;1.17;;
30472;SDS011;17263;48.160;11.452;2023-02-03T16:26:00;1.40;;;1.20;;
30472;SDS011;17263;48.160;11.452;2023-02-03T16:28:30;3.80;;;1.40;;
30472;SDS011;17263;48.160;11.452;2023-02-03T16:31:18;2.20;;;1.20;;
30472;SDS011;17263;48.160;11.452;2023-02-03T16:34:14;1.27;;;1.00;;
30472;SDS011;17263;48.160;11.452;2023-02-03T16:40:19;2.13;;;1.20;;
30472;SDS011;17263;48.160;11.452;2023-02-03T16:43:08;3.47;;;1.10;;
30472;SDS011;17263;48.160;11.452;2023-02-03T16:45:55;1.57;;;1.00;;
30472;SDS011;17263;48.160;11.452;2023-02-03T16:48:41;1.87;;;1.10;;
30472;SDS011;17263;48.160;11.452;2023-02-03T16:51:28;2.10;;;1.20;;
30472;SDS011;17263;48.160;11.452;2023-02-03T16:54:05;3.33;;;1.30;;
30472;SDS011;17263;48.160;11.452;2023-02-03T16:56:34;1.30;;;1.00;;
30472;SDS011;17263;48.160;11.452;2023-02-03T16:59:00;4.63;;;1.27;;
30472;SDS011;17263;48.160;11.452;2023-02-03T17:01:26;2.10;;;1.40;;
30472;SDS011;17263;48.160;11.452;2023-02-03T17:03:52;1.73;;;1.10;;
30472;SDS011;17263;48.160;11.452;2023-02-03T17:06:18;1.63;;;1.10;;